Time;durP1;ratioP1;P1;durP2;ratioP2;P2;SDS_P1;SDS_P2;PMS_P1;PMS_P2;Temp;Humidity;BMP_temperature;BMP_pressure;BME280_temperature;BME280_humidity;BME280_pressure;Samples;Min_cycle;Max_cycle;Signal;HPM_P1;HPM_P2
2022/04/17 00:02:11;;;;;;;26.73;10.18;;;;;;;;;;6146648;29;20463;-79
2022/04/17 00:05:11;;;;;;;22.63;9.20;;;;;;;;;;6129377;29;20148;-80
2022/04/17 00:08:11;;;;;;;22.42;9.43;;;;;;;;;;6129050;29;20468;-79
2022/04/17 00:11:12;;;;;;;23.20;10.02;;;;;;;;;;6121347;29;20066;-79
2022/04/17 00:14:12;;;;;;;18.75;10.13;;;;;;;;;;6122807;29;20035;-79
2022/04/17 00:17:13;;;;;;;27.13;11.33;;;;;;;;;;6123368;29;20463;-79
2022/04/17 00:20:14;;;;;;;22.42;8.48;;;;;;;;;;6146534;29;20657;-79
2022/04/17 00:23:14;;;;;;;17.67;8.63;;;;;;;;;;6146812;29;20030;-80
2022/04/17 00:26:15;;;;;;;20.42;10.18;;;;;;;;;;6146125;28;20043;-80
2022/04/17 00:29:15;;;;;;;19.67;8.85;;;;;;;;;;6146965;29;20037;-80
2022/04/17 00:32:15;;;;;;;19.80;9.93;;;;;;;;;;6129198;29;20047;-80
2022/04/17 00:35:15;;;;;;;18.85;8.98;;;;;;;;;;6145546;29;20035;-80
2022/04/17 00:38:15;;;;;;;19.27;8.27;;;;;;;;;;6145870;29;20027;-80
2022/04/17 00:41:16;;;;;;;18.77;9.00;;;;;;;;;;6129285;28;20026;-81
2022/04/17 00:44:16;;;;;;;29.30;11.13;;;;;;;;;;6133753;29;20097;-81
2022/04/17 00:47:17;;;;;;;22.77;9.07;;;;;;;;;;6133301;29;20058;-81
2022/04/17 00:50:18;;;;;;;23.65;9.63;;;;;;;;;;6133508;28;20027;-80
2022/04/17 00:53:18;;;;;;;22.23;10.07;;;;;;;;;;6133523;29;20027;-81
2022/04/17 00:56:20;;;;;;;20.05;9.25;;;;;;;;;;6138583;28;20027;-81
2022/04/17 00:59:21;;;;;;;;;;;;;;;;;;6133798;29;20078;-80
2022/04/17 01:02:21;;;;;;;22.27;10.18;;;;;;;;;;6133245;29;20318;-80
2022/04/17 01:05:22;;;;;;;20.73;9.75;;;;;;;;;;6150777;29;20467;-80
2022/04/17 01:08:22;;;;;;;19.95;9.55;;;;;;;;;;6150047;29;20387;-81
2022/04/17 01:11:23;;;;;;;22.08;10.82;;;;;;;;;;6131116;29;20207;-81
2022/04/17 01:14:26;;;;;;;22.48;11.60;;;;;;;;;;6125260;29;20024;-80
2022/04/17 01:17:26;;;;;;;20.70;10.55;;;;;;;;;;6132496;29;20031;-80
2022/04/17 01:20:27;;;;;;;24.33;11.00;;;;;;;;;;6132543;29;20505;-80
2022/04/17 01:26:58;;;;;;;34.83;14.20;;;;;;;;;;6150287;28;20055;-79
2022/04/17 01:29:59;;;;;;;34.20;13.45;;;;;;;;;;6150160;29;20049;-80
2022/04/17 01:32:59;;;;;;;41.53;16.83;;;;;;;;;;6133309;29;20451;-80
2022/04/17 01:35:59;;;;;;;35.97;15.73;;;;;;;;;;6132653;29;20475;-80
2022/04/17 01:38:59;;;;;;;32.25;13.88;;;;;;;;;;6150164;29;20583;-80
2022/04/17 01:42:00;;;;;;;40.85;15.50;;;;;;;;;;6149432;29;20502;-80
2022/04/17 01:45:00;;;;;;;36.83;14.07;;;;;;;;;;6133122;28;20038;-78
2022/04/17 01:48:00;;;;;;;39.38;16.88;;;;;;;;;;6148388;28;20031;-79
2022/04/17 01:51:00;;;;;;;33.10;17.17;;;;;;;;;;6150096;29;20027;-79
2022/04/17 01:54:02;;;;;;;34.67;14.32;;;;;;;;;;6148754;28;20031;-79
2022/04/17 01:57:03;;;;;;;26.33;12.25;;;;;;;;;;6132100;29;20110;-79
2022/04/17 02:00:03;;;;;;;32.90;14.73;;;;;;;;;;6148873;29;20115;-79
2022/04/17 02:03:04;;;;;;;48.60;18.90;;;;;;;;;;6148878;29;20023;-78
2022/04/17 02:06:04;;;;;;;32.80;14.88;;;;;;;;;;6122394;29;20112;-79
2022/04/17 02:09:04;;;;;;;40.80;15.43;;;;;;;;;;6125153;29;20110;-78
2022/04/17 02:12:04;;;;;;;33.92;15.38;;;;;;;;;;6131341;29;20030;-78
2022/04/17 02:15:05;;;;;;;42.72;16.77;;;;;;;;;;6131257;28;20078;-78
2022/04/17 02:18:05;;;;;;;45.05;17.80;;;;;;;;;;6148265;29;20553;-78
2022/04/17 02:21:06;;;;;;;40.42;17.55;;;;;;;;;;6148711;29;20038;-77
2022/04/17 02:24:06;;;;;;;41.55;18.45;;;;;;;;;;6131499;28;20037;-77
2022/04/17 02:27:07;;;;;;;41.40;18.20;;;;;;;;;;6148194;29;20055;-76
2022/04/17 02:30:08;;;;;;;48.70;21.40;;;;;;;;;;6148045;29;20031;-76
2022/04/17 02:33:09;;;;;;;46.00;20.80;;;;;;;;;;6148836;29;20379;-77
2022/04/17 02:36:09;;;;;;;45.17;19.55;;;;;;;;;;6147767;29;20039;-77
2022/04/17 02:39:09;;;;;;;45.47;18.48;;;;;;;;;;6130905;29;20027;-77
2022/04/17 02:42:09;;;;;;;44.78;20.15;;;;;;;;;;6148083;29;20642;-77
2022/04/17 02:45:10;;;;;;;45.57;17.90;;;;;;;;;;6147862;29;20057;-77
2022/04/17 02:48:10;;;;;;;49.25;18.83;;;;;;;;;;6147719;29;20271;-77
2022/04/17 02:51:11;;;;;;;42.60;18.50;;;;;;;;;;6148020;29;20027;-77
2022/04/17 02:54:11;;;;;;;54.90;20.67;;;;;;;;;;6130623;28;20114;-77
2022/04/17 02:57:11;;;;;;;49.30;22.13;;;;;;;;;;6147307;29;20073;-77
2022/04/17 03:00:12;;;;;;;48.00;21.17;;;;;;;;;;6130049;29;20107;-77
2022/04/17 03:06:31;;;;;;;48.80;20.73;;;;;;;;;;6147192;28;20034;-77
2022/04/17 03:09:31;;;;;;;60.72;24.10;;;;;;;;;;6147263;28;20042;-77
2022/04/17 03:12:32;;;;;;;54.67;22.20;;;;;;;;;;6145948;28;20051;-77
2022/04/17 03:15:32;;;;;;;61.75;22.23;;;;;;;;;;6147170;29;20467;-78
2022/04/17 03:18:33;;;;;;;42.63;18.90;;;;;;;;;;6129757;29;20074;-78
2022/04/17 03:21:33;;;;;;;37.67;15.82;;;;;;;;;;6130091;29;20023;-78
2022/04/17 03:24:33;;;;;;;39.78;16.83;;;;;;;;;;6147537;28;20023;-78
2022/04/17 03:27:33;;;;;;;33.17;15.10;;;;;;;;;;6128724;29;20502;-78
2022/04/17 03:30:34;;;;;;;29.95;14.82;;;;;;;;;;6145813;28;20027;-79
2022/04/17 03:33:34;;;;;;;37.10;14.70;;;;;;;;;;6145549;28;20636;-79
2022/04/17 03:36:34;;;;;;;32.88;15.80;;;;;;;;;;6129566;28;20558;-79
2022/04/17 03:39:34;;;;;;;41.20;16.17;;;;;;;;;;6130028;29;20027;-79
2022/04/17 03:42:35;;;;;;;40.40;16.88;;;;;;;;;;6129403;29;20452;-80
2022/04/17 03:45:35;;;;;;;30.77;15.85;;;;;;;;;;6145976;29;20059;-80
2022/04/17 03:48:36;;;;;;;40.30;19.05;;;;;;;;;;6145316;29;20023;-80
2022/04/17 03:51:36;;;;;;;41.63;20.02;;;;;;;;;;6147200;28;20023;-80
2022/04/17 03:54:36;;;;;;;32.35;15.57;;;;;;;;;;6129835;28;20059;-80
2022/04/17 03:57:37;;;;;;;47.47;17.45;;;;;;;;;;6129149;29;20102;-80
2022/04/17 04:00:37;;;;;;;37.22;15.77;;;;;;;;;;6146627;29;20021;-80
2022/04/17 04:03:39;;;;;;;40.45;17.23;;;;;;;;;;6147048;29;20383;-81
2022/04/17 04:06:39;;;;;;;38.15;17.05;;;;;;;;;;6146714;29;20078;-81
2022/04/17 04:09:39;;;;;;;38.88;18.50;;;;;;;;;;6146690;29;20097;-80
2022/04/17 04:12:40;;;;;;;34.08;17.85;;;;;;;;;;6129671;29;20031;-80
2022/04/17 04:15:40;;;;;;;32.85;15.82;;;;;;;;;;6129366;28;20031;-78
2022/04/17 04:18:40;;;;;;;30.58;15.57;;;;;;;;;;6150711;29;20035;-79
2022/04/17 04:21:49;;;;;;;27.92;13.98;;;;;;;;;;6151448;29;20443;-79
2022/04/17 04:24:49;;;;;;;34.55;15.02;;;;;;;;;;6134567;29;20475;-80
2022/04/17 04:31:09;;;;;;;27.20;14.48;;;;;;;;;;6151590;29;20028;-80
2022/04/17 04:34:10;;;;;;;31.08;16.27;;;;;;;;;;6151318;29;20107;-79
2022/04/17 04:37:10;;;;;;;38.33;17.98;;;;;;;;;;6150868;29;20035;-80
2022/04/17 04:40:11;;;;;;;34.63;19.35;;;;;;;;;;6151029;29;20098;-78
2022/04/17 04:43:12;;;;;;;46.25;20.42;;;;;;;;;;6151151;29;20035;-78
2022/04/17 04:46:12;;;;;;;44.08;16.63;;;;;;;;;;6151057;29;20020;-79
2022/04/17 04:49:31;;;;;;;31.50;13.75;;;;;;;;;;6150378;29;20402;-79
2022/04/17 04:52:35;;;;;;;31.05;14.40;;;;;;;;;;6133252;29;20073;-79
2022/04/17 04:55:35;;;;;;;26.00;13.00;;;;;;;;;;6150595;28;20023;-78
2022/04/17 04:58:36;;;;;;;22.00;10.17;;;;;;;;;;6150589;29;20034;-78
2022/04/17 05:01:36;;;;;;;21.95;11.13;;;;;;;;;;6133028;29;20259;-78
2022/04/17 05:04:36;;;;;;;28.17;10.98;;;;;;;;;;6150186;29;20026;-78
2022/04/17 05:07:37;;;;;;;28.87;11.27;;;;;;;;;;6150017;29;20023;-78
2022/04/17 05:10:37;;;;;;;21.00;11.90;;;;;;;;;;6149994;29;20286;-78
2022/04/17 05:13:38;;;;;;;26.77;13.20;;;;;;;;;;6132769;29;20027;-78
2022/04/17 05:16:39;;;;;;;29.40;14.63;;;;;;;;;;6123641;29;20119;-79
2022/04/17 05:19:39;;;;;;;35.53;15.25;;;;;;;;;;6126370;29;20023;-79
2022/04/17 05:22:40;;;;;;;34.50;15.82;;;;;;;;;;6125058;29;20020;-79
2022/04/17 05:25:40;;;;;;;30.67;17.17;;;;;;;;;;6140214;28;20065;-78
2022/04/17 05:28:40;;;;;;;22.60;11.00;;;;;;;;;;6148999;28;20082;-79
2022/04/17 05:31:40;;;;;;;28.80;13.52;;;;;;;;;;6148873;28;20059;-80
2022/04/17 05:34:40;;;;;;;35.27;15.67;;;;;;;;;;6133378;29;20470;-80
2022/04/17 05:37:41;;;;;;;41.30;21.67;;;;;;;;;;6132872;29;20735;-80
2022/04/17 05:40:42;;;;;;;25.30;15.97;;;;;;;;;;6132711;29;20777;-80
2022/04/17 05:43:42;;;;;;;26.90;11.82;;;;;;;;;;6131378;29;20248;-82
2022/04/17 05:46:43;;;;;;;19.02;10.45;;;;;;;;;;6132169;29;20019;-81
2022/04/17 05:49:43;;;;;;;19.92;9.77;;;;;;;;;;6131731;29;20027;-81
2022/04/17 05:52:44;;;;;;;20.25;11.38;;;;;;;;;;6143526;29;20066;-82
2022/04/17 05:55:44;;;;;;;30.08;14.43;;;;;;;;;;6148316;28;20419;-82
2022/04/17 05:58:45;;;;;;;35.15;15.82;;;;;;;;;;6147712;29;20387;-81
2022/04/17 06:01:46;;;;;;;24.58;13.05;;;;;;;;;;6133226;28;20378;-81
2022/04/17 06:04:47;;;;;;;22.73;10.20;;;;;;;;;;6140264;28;20134;-80
2022/04/17 06:07:48;;;;;;;28.07;16.20;;;;;;;;;;6148214;29;20796;-79
2022/04/17 06:10:48;;;;;;;25.25;11.77;;;;;;;;;;6149669;28;20019;-79
2022/04/17 06:13:49;;;;;;;21.33;10.93;;;;;;;;;;6138165;28;20034;-79
2022/04/17 06:16:49;;;;;;;28.05;11.40;;;;;;;;;;6128876;29;20369;-79
2022/04/17 06:19:49;;;;;;;20.77;11.33;;;;;;;;;;6147856;29;20019;-79
2022/04/17 06:22:50;;;;;;;20.90;10.30;;;;;;;;;;6147122;29;20285;-79
2022/04/17 06:25:50;;;;;;;19.10;10.73;;;;;;;;;;6148332;29;20021;-79
2022/04/17 06:28:50;;;;;;;19.90;9.27;;;;;;;;;;6127336;29;20264;-79
2022/04/17 06:31:51;;;;;;;19.63;10.30;;;;;;;;;;6148129;29;20283;-80
2022/04/17 06:34:51;;;;;;;22.65;9.77;;;;;;;;;;6148560;29;20290;-79
2022/04/17 06:37:55;;;;;;;20.80;11.00;;;;;;;;;;6129535;29;20027;-80
2022/04/17 06:40:55;;;;;;;27.77;12.98;;;;;;;;;;6130243;29;20078;-79
2022/04/17 06:43:56;;;;;;;27.63;12.90;;;;;;;;;;6125042;29;20428;-80
2022/04/17 06:46:56;;;;;;;24.17;11.77;;;;;;;;;;6134490;29;20522;-80
2022/04/17 06:49:56;;;;;;;26.07;11.67;;;;;;;;;;6130061;29;20383;-79
2022/04/17 06:53:00;;;;;;;22.90;10.70;;;;;;;;;;6146461;28;20019;-79
2022/04/17 06:56:00;;;;;;;22.85;10.25;;;;;;;;;;6146404;28;20479;-79
2022/04/17 06:59:05;;;;;;;18.60;8.73;;;;;;;;;;6145170;28;20078;-79
2022/04/17 07:02:06;;;;;;;22.98;7.60;;;;;;;;;;6134224;29;20384;-79
2022/04/17 07:05:07;;;;;;;15.10;7.23;;;;;;;;;;6146888;29;20027;-79
2022/04/17 07:08:07;;;;;;;21.77;8.70;;;;;;;;;;6128434;29;20062;-79
2022/04/17 07:11:07;;;;;;;12.77;5.87;;;;;;;;;;6145071;29;20026;-79
2022/04/17 07:14:10;;;;;;;11.00;5.50;;;;;;;;;;6130237;29;20031;-79
2022/04/17 07:17:10;;;;;;;8.85;4.60;;;;;;;;;;6130269;29;20023;-79
2022/04/17 07:20:10;;;;;;;9.70;3.97;;;;;;;;;;6142609;29;20398;-80
2022/04/17 07:23:11;;;;;;;8.80;4.00;;;;;;;;;;6127806;29;20019;-79
2022/04/17 07:26:11;;;;;;;9.33;4.33;;;;;;;;;;6145223;28;20414;-79
2022/04/17 07:29:11;;;;;;;9.93;3.90;;;;;;;;;;6124173;29;20067;-79
2022/04/17 07:32:11;;;;;;;11.63;4.80;;;;;;;;;;6142996;29;20050;-79
2022/04/17 07:35:12;;;;;;;9.37;5.40;;;;;;;;;;6145204;29;20095;-79
2022/04/17 07:38:12;;;;;;;6.40;3.17;;;;;;;;;;6144767;29;20081;-79
2022/04/17 07:41:12;;;;;;;8.53;2.47;;;;;;;;;;6139213;29;20062;-79
2022/04/17 07:44:13;;;;;;;7.73;3.00;;;;;;;;;;6122136;29;20035;-79
2022/04/17 07:47:13;;;;;;;7.70;3.13;;;;;;;;;;6142473;29;20035;-79
2022/04/17 07:50:15;;;;;;;6.77;2.83;;;;;;;;;;6145284;29;20031;-79
2022/04/17 07:53:15;;;;;;;5.72;2.90;;;;;;;;;;6128796;29;20031;-79
2022/04/17 07:56:16;;;;;;;5.70;2.87;;;;;;;;;;6145775;28;20042;-80
2022/04/17 07:59:16;;;;;;;6.50;2.37;;;;;;;;;;6127679;29;20467;-79
2022/04/17 08:02:27;;;;;;;6.03;3.50;;;;;;;;;;6132849;29;20399;-79
2022/04/17 08:05:28;;;;;;;6.33;3.53;;;;;;;;;;6122630;29;20411;-79
2022/04/17 08:08:28;;;;;;;7.17;4.17;;;;;;;;;;6121358;29;20046;-79
2022/04/17 08:11:29;;;;;;;6.67;2.30;;;;;;;;;;6139725;29;20062;-79
2022/04/17 08:14:30;;;;;;;8.35;4.15;;;;;;;;;;6146364;29;20479;-79
2022/04/17 08:17:30;;;;;;;8.90;4.43;;;;;;;;;;6120974;29;20027;-79
2022/04/17 08:20:30;;;;;;;3.83;2.10;;;;;;;;;;6121601;29;20403;-79
2022/04/17 08:23:31;;;;;;;4.17;2.23;;;;;;;;;;6122700;29;20391;-78
2022/04/17 08:26:31;;;;;;;2.80;1.50;;;;;;;;;;6143296;28;20063;-78
2022/04/17 08:29:32;;;;;;;2.93;1.70;;;;;;;;;;6145508;29;20030;-78
2022/04/17 08:32:32;;;;;;;4.27;2.30;;;;;;;;;;6145143;29;20031;-79
2022/04/17 08:35:32;;;;;;;7.17;3.17;;;;;;;;;;6145470;29;20046;-79
2022/04/17 08:38:34;;;;;;;8.30;3.37;;;;;;;;;;6146266;29;20030;-79
2022/04/17 08:41:35;;;;;;;6.82;3.22;;;;;;;;;;6128593;29;20023;-79
2022/04/17 08:44:35;;;;;;;5.73;2.50;;;;;;;;;;6146286;29;20020;-79
2022/04/17 08:47:39;;;;;;;7.57;3.30;;;;;;;;;;6128331;29;20038;-79
2022/04/17 08:50:39;;;;;;;5.18;2.22;;;;;;;;;;6144355;29;20479;-79
2022/04/17 08:53:40;;;;;;;3.93;2.20;;;;;;;;;;6126645;29;20027;-79
2022/04/17 08:56:41;;;;;;;5.03;2.50;;;;;;;;;;6143936;28;20037;-79
2022/04/17 08:59:41;;;;;;;6.43;2.83;;;;;;;;;;6141053;28;20136;-79
2022/04/17 09:02:41;;;;;;;6.63;2.53;;;;;;;;;;6142436;28;20077;-79
2022/04/17 09:05:42;;;;;;;4.13;2.43;;;;;;;;;;6146314;29;20332;-79
2022/04/17 09:08:55;;;;;;;4.85;2.28;;;;;;;;;;6131596;29;20035;-79
2022/04/17 09:11:55;;;;;;;3.55;2.15;;;;;;;;;;6150032;29;20361;-79
2022/04/17 09:14:57;;;;;;;8.02;2.58;;;;;;;;;;6149881;29;20023;-79
2022/04/17 09:17:57;;;;;;;5.78;2.38;;;;;;;;;;6150127;29;20027;-79
2022/04/17 09:20:58;;;;;;;7.17;3.07;;;;;;;;;;6132782;29;20042;-79
2022/04/17 09:24:16;;;;;;;7.07;3.53;;;;;;;;;;6150409;28;20073;-79
2022/04/17 09:27:16;;;;;;;8.10;3.95;;;;;;;;;;6132681;29;20070;-79
2022/04/17 09:30:24;;;;;;;5.68;2.72;;;;;;;;;;6132477;29;20023;-79
2022/04/17 09:33:33;;;;;;;7.10;2.47;;;;;;;;;;6150227;29;20028;-79
2022/04/17 09:36:37;;;;;;;4.55;2.33;;;;;;;;;;6149884;29;20023;-79
2022/04/17 09:39:37;;;;;;;3.95;1.90;;;;;;;;;;6147881;29;20031;-79
2022/04/17 09:42:37;;;;;;;5.67;2.47;;;;;;;;;;6148628;29;20391;-80
2022/04/17 09:46:00;;;;;;;3.25;1.73;;;;;;;;;;6132529;29;20289;-80
2022/04/17 09:49:00;;;;;;;5.78;2.33;;;;;;;;;;6131998;29;20038;-80
2022/04/17 09:52:07;;;;;;;3.63;2.10;;;;;;;;;;6124521;29;20368;-79
2022/04/17 09:55:07;;;;;;;2.70;1.65;;;;;;;;;;6143249;28;20478;-79
2022/04/17 09:58:11;;;;;;;2.30;1.80;;;;;;;;;;6130986;28;20125;-80
2022/04/17 10:01:18;;;;;;;3.55;2.45;;;;;;;;;;6149463;29;20280;-80
2022/04/17 10:04:22;;;;;;;3.22;1.15;;;;;;;;;;6149235;29;20030;-80
2022/04/17 10:07:24;;;;;;;1.88;1.40;;;;;;;;;;6134110;28;20027;-80
2022/04/17 10:10:24;;;;;;;3.00;1.55;;;;;;;;;;6131532;29;20031;-80
2022/04/17 10:13:25;;;;;;;5.97;1.67;;;;;;;;;;6131552;28;20533;-80
2022/04/17 10:16:25;;;;;;;10.07;1.73;;;;;;;;;;6147968;29;20494;-80
2022/04/17 10:19:27;;;;;;;2.67;1.53;;;;;;;;;;6148889;29;20015;-80
2022/04/17 10:22:31;;;;;;;4.70;2.00;;;;;;;;;;6149232;29;20494;-81
2022/04/17 10:25:33;;;;;;;3.80;1.98;;;;;;;;;;6142403;28;20023;-80
2022/04/17 10:28:36;;;;;;;4.65;2.20;;;;;;;;;;6143436;28;20094;-80
2022/04/17 10:31:55;;;;;;;6.30;2.00;;;;;;;;;;6146586;29;20031;-79
2022/04/17 10:35:04;;;;;;;5.90;1.80;;;;;;;;;;6146839;29;20074;-79
2022/04/17 10:38:11;;;;;;;5.40;1.98;;;;;;;;;;6144540;29;20023;-80
2022/04/17 10:41:14;;;;;;;4.88;2.47;;;;;;;;;;6115263;29;20118;-79
2022/04/17 10:44:15;;;;;;;4.30;1.90;;;;;;;;;;6147530;29;20047;-79
2022/04/17 10:47:17;;;;;;;4.90;2.72;;;;;;;;;;6147171;29;20019;-80
2022/04/17 10:50:21;;;;;;;3.50;2.08;;;;;;;;;;6145127;29;20050;-80
2022/04/17 10:53:28;;;;;;;4.65;2.70;;;;;;;;;;6144737;29;20035;-80
2022/04/17 10:56:29;;;;;;;6.10;2.83;;;;;;;;;;6153640;28;20031;-80
2022/04/17 10:59:31;;;;;;;5.43;2.90;;;;;;;;;;6129796;29;20391;-80
2022/04/17 11:02:31;;;;;;;6.03;3.03;;;;;;;;;;6126901;29;20028;-80
2022/04/17 11:09:10;;;;;;;9.93;3.58;;;;;;;;;;6147833;29;20035;-79
2022/04/17 11:12:10;;;;;;;11.32;4.28;;;;;;;;;;6130273;29;20093;-79
2022/04/17 11:15:11;;;;;;;10.33;4.53;;;;;;;;;;6147730;28;20030;-80
2022/04/17 11:18:11;;;;;;;6.20;3.27;;;;;;;;;;6147255;29;20674;-80
2022/04/17 11:21:12;;;;;;;4.00;2.53;;;;;;;;;;6145775;29;20110;-80
2022/04/17 11:24:12;;;;;;;4.90;2.50;;;;;;;;;;6147968;28;20030;-80
2022/04/17 11:27:12;;;;;;;3.27;1.53;;;;;;;;;;6118447;29;20270;-80
2022/04/17 11:30:16;;;;;;;3.30;2.10;;;;;;;;;;6121407;29;20040;-80
2022/04/17 11:33:17;;;;;;;5.03;2.30;;;;;;;;;;6122380;29;20042;-80
2022/04/17 11:36:17;;;;;;;5.20;1.73;;;;;;;;;;6123185;29;20046;-80
2022/04/17 11:39:26;;;;;;;3.10;1.87;;;;;;;;;;6123627;29;20016;-80
2022/04/17 11:42:28;;;;;;;5.70;2.80;;;;;;;;;;6112016;29;20192;-80
2022/04/17 11:45:28;;;;;;;4.57;1.98;;;;;;;;;;6099914;29;20503;-79
2022/04/17 11:48:28;;;;;;;4.37;2.10;;;;;;;;;;6097770;29;20063;-79
2022/04/17 11:51:29;;;;;;;4.57;2.43;;;;;;;;;;6115914;29;20038;-79
2022/04/17 11:54:32;;;;;;;4.13;2.23;;;;;;;;;;6121900;29;20420;-79
2022/04/17 11:57:35;;;;;;;5.18;1.90;;;;;;;;;;6122170;29;20023;-79
2022/04/17 12:00:35;;;;;;;3.95;2.25;;;;;;;;;;6121671;29;20027;-80
2022/04/17 12:03:37;;;;;;;4.10;1.93;;;;;;;;;;6125761;28;20058;-80
2022/04/17 12:06:37;;;;;;;5.15;2.42;;;;;;;;;;6129502;28;20259;-80
2022/04/17 12:09:38;;;;;;;4.77;2.60;;;;;;;;;;6120753;29;20435;-80
2022/04/17 12:12:39;;;;;;;5.27;2.37;;;;;;;;;;6122316;29;20074;-80
2022/04/17 12:15:40;;;;;;;4.68;2.92;;;;;;;;;;6120412;29;20020;-80
2022/04/17 12:18:40;;;;;;;5.90;3.00;;;;;;;;;;6137236;29;20031;-80
2022/04/17 12:21:40;;;;;;;4.33;2.30;;;;;;;;;;6121607;29;20024;-80
2022/04/17 12:24:44;;;;;;;5.03;2.20;;;;;;;;;;6136958;29;20471;-80
2022/04/17 12:27:48;;;;;;;4.82;1.98;;;;;;;;;;6107649;29;20093;-80
2022/04/17 12:30:48;;;;;;;5.85;2.65;;;;;;;;;;6099265;29;20032;-80
2022/04/17 12:33:48;;;;;;;5.27;2.50;;;;;;;;;;6114302;29;20448;-80
2022/04/17 12:36:49;;;;;;;4.37;2.00;;;;;;;;;;6123106;29;20028;-80
2022/04/17 12:39:49;;;;;;;5.37;2.47;;;;;;;;;;6126654;29;20024;-80
2022/04/17 12:42:50;;;;;;;4.30;2.10;;;;;;;;;;6126501;29;20024;-80
2022/04/17 12:45:56;;;;;;;4.37;1.97;;;;;;;;;;6142142;29;20035;-79
2022/04/17 12:49:07;;;;;;;2.97;1.60;;;;;;;;;;6142113;28;20329;-80
2022/04/17 12:52:07;;;;;;;3.45;1.52;;;;;;;;;;6116549;29;20031;-80
2022/04/17 12:55:08;;;;;;;4.23;1.63;;;;;;;;;;6127515;29;20471;-80
2022/04/17 12:58:08;;;;;;;2.95;1.83;;;;;;;;;;6125403;29;20071;-80
2022/04/17 13:01:16;;;;;;;5.77;2.43;;;;;;;;;;6125396;29;20020;-80
2022/04/17 13:04:21;;;;;;;4.07;2.28;;;;;;;;;;6126220;29;20083;-80
2022/04/17 13:07:21;;;;;;;3.33;1.60;;;;;;;;;;6127009;29;20071;-80
2022/04/17 13:10:29;;;;;;;3.23;1.80;;;;;;;;;;6140359;29;20028;-80
2022/04/17 13:13:38;;;;;;;2.13;1.60;;;;;;;;;;6125296;29;20071;-80
2022/04/17 13:16:49;;;;;;;3.67;1.42;;;;;;;;;;6116689;29;20016;-80
2022/04/17 13:19:50;;;;;;;3.00;1.48;;;;;;;;;;6112117;29;20437;-80
2022/04/17 13:22:50;;;;;;;3.10;1.73;;;;;;;;;;6103243;29;20020;-80
2022/04/17 13:25:50;;;;;;;2.70;1.90;;;;;;;;;;6117462;29;20364;-80
2022/04/17 13:28:51;;;;;;;4.37;1.77;;;;;;;;;;6149500;29;20078;-81
2022/04/17 13:31:51;;;;;;;6.03;2.57;;;;;;;;;;6150119;29;20078;-81
2022/04/17 13:34:51;;;;;;;4.50;2.10;;;;;;;;;;6132724;29;20028;-81
2022/04/17 13:41:10;;;;;;;4.53;2.45;;;;;;;;;;6149538;29;20059;-79
2022/04/17 13:44:11;;;;;;;2.20;1.87;;;;;;;;;;6132823;29;20124;-79
2022/04/17 13:47:11;;;;;;;3.57;2.00;;;;;;;;;;6150201;29;20108;-79
2022/04/17 13:50:11;;;;;;;4.73;2.17;;;;;;;;;;6147307;28;20031;-79
2022/04/17 13:53:11;;;;;;;4.30;2.03;;;;;;;;;;6148544;29;20031;-80
2022/04/17 13:56:14;;;;;;;6.53;2.60;;;;;;;;;;6148237;28;20122;-80
2022/04/17 13:59:14;;;;;;;4.97;2.30;;;;;;;;;;6148285;29;20019;-80
2022/04/17 14:02:14;;;;;;;3.97;1.93;;;;;;;;;;6144019;29;20387;-79
2022/04/17 14:05:15;;;;;;;5.93;2.37;;;;;;;;;;6145985;29;20401;-79
2022/04/17 14:08:15;;;;;;;5.07;2.10;;;;;;;;;;6146293;29;20024;-79
2022/04/17 14:11:16;;;;;;;4.15;2.40;;;;;;;;;;6147616;29;20420;-79
2022/04/17 14:14:16;;;;;;;4.10;2.07;;;;;;;;;;6148263;29;20031;-80
2022/04/17 14:17:16;;;;;;;4.03;1.73;;;;;;;;;;6147456;28;20290;-80
2022/04/17 14:20:17;;;;;;;3.20;1.67;;;;;;;;;;6147375;29;20259;-80
2022/04/17 14:23:18;;;;;;;4.72;1.70;;;;;;;;;;6146651;29;20015;-80
2022/04/17 14:26:18;;;;;;;9.83;4.93;;;;;;;;;;6134592;29;20543;-80
2022/04/17 14:29:18;;;;;;;4.47;2.60;;;;;;;;;;6146303;29;20471;-80
2022/04/17 14:32:19;;;;;;;2.70;1.87;;;;;;;;;;6145818;29;20109;-80
2022/04/17 14:35:19;;;;;;;4.30;1.83;;;;;;;;;;6146317;29;20042;-80
2022/04/17 14:38:19;;;;;;;4.30;2.40;;;;;;;;;;6129931;29;20022;-80
2022/04/17 14:41:19;;;;;;;2.40;1.50;;;;;;;;;;6129799;29;20037;-80
2022/04/17 14:44:20;;;;;;;15.00;9.87;;;;;;;;;;6146870;29;20019;-79
2022/04/17 14:47:20;;;;;;;5.63;2.43;;;;;;;;;;6147276;29;20034;-80
2022/04/17 14:50:21;;;;;;;6.03;2.43;;;;;;;;;;6146208;29;20031;-80
2022/04/17 14:53:21;;;;;;;6.13;2.78;;;;;;;;;;6147283;29;20019;-80
2022/04/17 14:56:21;;;;;;;4.97;1.85;;;;;;;;;;6129452;29;20057;-80
2022/04/17 14:59:21;;;;;;;9.10;3.20;;;;;;;;;;6129800;29;20015;-79
2022/04/17 15:02:22;;;;;;;9.23;2.60;;;;;;;;;;6146449;28;20071;-79
2022/04/17 15:05:22;;;;;;;9.23;4.13;;;;;;;;;;6146689;29;20020;-79
2022/04/17 15:08:22;;;;;;;8.07;3.72;;;;;;;;;;6128546;29;20050;-79
2022/04/17 15:11:23;;;;;;;12.15;4.53;;;;;;;;;;6150665;28;20023;-80
2022/04/17 15:14:24;;;;;;;6.27;2.90;;;;;;;;;;6145850;29;20505;-80
2022/04/17 15:17:24;;;;;;;7.15;3.42;;;;;;;;;;6145318;29;20019;-80
2022/04/17 15:20:25;;;;;;;6.43;2.90;;;;;;;;;;6130316;29;20070;-80
2022/04/17 15:23:25;;;;;;;7.13;2.70;;;;;;;;;;6146258;29;20413;-79
2022/04/17 15:26:25;;;;;;;1.90;1.65;;;;;;;;;;6145854;28;20301;-80
2022/04/17 15:29:26;;;;;;;3.85;2.83;;;;;;;;;;6144509;29;20408;-80
2022/04/17 15:32:26;;;;;;;8.13;2.42;;;;;;;;;;6146191;29;20110;-80
2022/04/17 15:35:26;;;;;;;4.30;2.20;;;;;;;;;;6134814;29;20399;-80
2022/04/17 15:38:27;;;;;;;4.55;2.00;;;;;;;;;;6145743;29;20343;-79
2022/04/17 15:41:27;;;;;;;9.80;2.63;;;;;;;;;;6128277;29;20467;-80
2022/04/17 15:47:57;;;;;;;5.38;2.35;;;;;;;;;;6145581;29;20508;-80
2022/04/17 15:50:57;;;;;;;6.57;2.20;;;;;;;;;;6145408;28;20391;-81
2022/04/17 15:53:58;;;;;;;4.40;2.30;;;;;;;;;;6147108;28;20059;-80
2022/04/17 15:56:58;;;;;;;6.50;3.13;;;;;;;;;;6128160;29;20362;-80
2022/04/17 15:59:58;;;;;;;2.83;1.77;;;;;;;;;;6122390;29;20325;-80
2022/04/17 16:02:58;;;;;;;5.33;2.67;;;;;;;;;;6145467;29;20738;-80
2022/04/17 16:05:58;;;;;;;6.35;2.88;;;;;;;;;;6135754;29;20770;-80
2022/04/17 16:08:59;;;;;;;4.70;2.80;;;;;;;;;;6145536;29;20023;-80
2022/04/17 16:11:59;;;;;;;5.80;3.23;;;;;;;;;;6122979;29;20751;-80
2022/04/17 16:15:00;;;;;;;5.63;2.60;;;;;;;;;;6136459;29;20270;-80
2022/04/17 16:18:00;;;;;;;5.72;2.67;;;;;;;;;;6121610;29;20388;-80
2022/04/17 16:21:01;;;;;;;8.32;3.55;;;;;;;;;;6120206;29;20259;-80
2022/04/17 16:24:01;;;;;;;9.85;3.47;;;;;;;;;;6121342;28;20027;-80
2022/04/17 16:27:01;;;;;;;10.60;3.67;;;;;;;;;;6127800;29;20071;-80
2022/04/17 16:30:02;;;;;;;7.40;4.25;;;;;;;;;;6128784;29;20650;-80
2022/04/17 16:33:02;;;;;;;8.07;4.05;;;;;;;;;;6129290;29;20057;-80
2022/04/17 16:36:05;;;;;;;14.32;5.13;;;;;;;;;;6146329;29;20106;-80
2022/04/17 16:39:06;;;;;;;12.75;5.75;;;;;;;;;;6128401;29;20024;-80
2022/04/17 16:42:06;;;;;;;6.80;4.13;;;;;;;;;;6143745;29;20139;-80
2022/04/17 16:45:07;;;;;;;10.48;3.75;;;;;;;;;;6113194;29;20594;-80
2022/04/17 16:48:07;;;;;;;10.10;3.88;;;;;;;;;;6129318;29;20033;-80
2022/04/17 16:51:07;;;;;;;7.90;3.30;;;;;;;;;;6128815;29;20015;-80
2022/04/17 16:54:09;;;;;;;14.02;6.20;;;;;;;;;;6146502;28;20266;-80
2022/04/17 17:00:28;;;;;;;12.98;5.43;;;;;;;;;;6145045;29;20034;-80
2022/04/17 17:03:28;;;;;;;21.67;7.50;;;;;;;;;;6144895;29;20102;-80
2022/04/17 17:06:28;;;;;;;11.77;5.20;;;;;;;;;;6146172;29;20059;-80
2022/04/17 17:09:29;;;;;;;20.27;9.13;;;;;;;;;;6144698;29;20361;-80
2022/04/17 17:12:31;;;;;;;16.90;6.35;;;;;;;;;;6146276;29;20513;-80
2022/04/17 17:15:31;;;;;;;8.63;4.13;;;;;;;;;;6145951;28;20047;-80
2022/04/17 17:18:31;;;;;;;12.30;4.80;;;;;;;;;;6145744;29;20114;-80
2022/04/17 17:21:31;;;;;;;11.50;4.93;;;;;;;;;;6143838;29;20064;-80
2022/04/17 17:24:32;;;;;;;15.20;5.63;;;;;;;;;;6147865;28;20361;-80
2022/04/17 17:27:32;;;;;;;20.97;8.30;;;;;;;;;;6148694;29;20494;-80
2022/04/17 17:30:32;;;;;;;14.03;5.70;;;;;;;;;;6129797;29;20785;-80
2022/04/17 17:33:33;;;;;;;13.05;5.72;;;;;;;;;;6135758;29;20642;-80
2022/04/17 17:36:33;;;;;;;14.05;6.65;;;;;;;;;;6132464;29;20122;-80
2022/04/17 17:39:33;;;;;;;16.95;7.05;;;;;;;;;;6150074;29;20538;-80
2022/04/17 17:42:34;;;;;;;16.80;7.65;;;;;;;;;;6150277;29;20070;-80
2022/04/17 17:45:34;;;;;;;15.52;6.47;;;;;;;;;;6149454;29;20492;-80
2022/04/17 17:48:38;;;;;;;20.77;7.30;;;;;;;;;;6149809;29;20031;-80
2022/04/17 17:51:40;;;;;;;17.13;7.13;;;;;;;;;;6131364;29;20281;-80
2022/04/17 17:54:40;;;;;;;12.63;5.13;;;;;;;;;;6144930;28;20038;-80
2022/04/17 17:57:40;;;;;;;14.00;7.38;;;;;;;;;;6145435;29;20390;-80
2022/04/17 18:00:41;;;;;;;18.07;7.50;;;;;;;;;;6127095;29;20023;-80
2022/04/17 18:03:41;;;;;;;24.25;9.32;;;;;;;;;;6129517;29;20400;-80
2022/04/17 18:06:41;;;;;;;19.00;8.70;;;;;;;;;;6146265;29;20372;-80
2022/04/17 18:16:20;;;;;;;19.80;9.23;;;;;;;;;;6147659;29;20495;-79
2022/04/17 18:19:20;;;;;;;27.15;13.50;;;;;;;;;;6130916;29;20038;-79
2022/04/17 18:22:40;;;;;;;27.90;14.50;;;;;;;;;;6147760;29;20467;-80
2022/04/17 18:25:40;;;;;;;32.10;16.20;;;;;;;;;;6132830;28;20293;-80